createdAt,value
2023-02-05T00:00:19.090Z,45628.06
2023-02-05T00:02:45.648Z,45608.06
2023-02-05T00:05:12.335Z,45618.06
2023-02-05T00:07:38.697Z,45604.06
2023-02-05T00:10:05.748Z,45616.06
2023-02-05T00:12:32.352Z,45650.03
2023-02-05T00:14:58.810Z,45622.06
2023-02-05T00:17:25.204Z,45612.06
2023-02-05T00:19:51.598Z,45598.06
2023-02-05T00:22:17.978Z,45622.06
2023-02-05T00:24:44.406Z,45630.06
2023-02-05T00:27:10.938Z,45618.06
2023-02-05T00:29:37.986Z,45622.06
2023-02-05T00:32:04.588Z,45626.06
2023-02-05T00:34:30.977Z,45634.06
2023-02-05T00:36:57.565Z,45636.06
2023-02-05T00:39:23.955Z,45630.06
2023-02-05T00:41:50.861Z,45630.06
2023-02-05T00:44:17.225Z,45616.06
2023-02-05T00:46:43.614Z,45642.03
2023-02-05T00:49:10.003Z,45606.06
2023-02-05T00:51:36.486Z,45618.06
2023-02-05T00:54:02.899Z,45618.06
2023-02-05T00:56:29.706Z,45638.06
2023-02-05T00:58:57.456Z,45642.03
2023-02-05T01:01:23.912Z,45622.06
2023-02-05T01:03:50.356Z,45618.06
2023-02-05T01:06:16.940Z,45616.06
2023-02-05T01:08:43.384Z,45638.06
2023-02-05T01:11:11.147Z,45626.06
2023-02-05T01:13:38.455Z,45630.06
2023-02-05T01:16:05.463Z,45622.06
2023-02-05T01:18:32.078Z,45614.06
2023-02-05T01:20:59.192Z,45636.06
2023-02-05T01:23:25.847Z,45614.06
2023-02-05T01:25:52.367Z,45634.06
2023-02-05T01:28:18.941Z,45618.06
2023-02-05T01:30:50.209Z,45628.06
2023-02-05T01:33:17.562Z,45626.06
2023-02-05T01:35:44.855Z,45626.06
2023-02-05T01:38:12.561Z,45618.06
2023-02-05T01:40:39.651Z,45638.06
2023-02-05T01:43:14.092Z,45606.06
2023-02-05T01:46:05.677Z,45620.06
2023-02-05T01:48:43.802Z,45610.06
2023-02-05T01:51:14.301Z,45634.06
2023-02-05T01:53:42.637Z,45640.03
2023-02-05T01:56:14.756Z,45626.06
2023-02-05T01:58:48.053Z,45614.06
2023-02-05T02:01:15.166Z,45622.06
2023-02-05T02:03:41.688Z,45620.06
2023-02-05T02:06:09.378Z,45618.06
2023-02-05T02:08:35.829Z,45642.03
2023-02-05T02:11:05.470Z,45626.06
2023-02-05T02:13:35.367Z,45630.06
2023-02-05T02:16:06.462Z,45636.06
2023-02-05T02:18:34.775Z,45610.06
2023-02-05T02:21:29.499Z,45618.06
2023-02-05T02:24:33.625Z,45632.06
2023-02-05T02:27:10.200Z,45630.06
2023-02-05T02:29:53.877Z,45638.06
2023-02-05T02:32:41.438Z,45626.06
2023-02-05T02:35:23.402Z,45626.06
2023-02-05T02:37:54.855Z,45638.06
2023-02-05T02:40:44.583Z,45598.06
2023-02-05T02:43:29.376Z,45622.06
2023-02-05T02:46:05.316Z,45626.06
2023-02-05T02:48:35.026Z,45602.06
2023-02-05T02:51:03.466Z,45614.06
2023-02-05T02:53:36.460Z,45620.06
2023-02-05T02:56:04.520Z,45598.06
2023-02-05T02:58:38.798Z,45610.06
2023-02-05T03:01:08.876Z,45610.06
2023-02-05T03:03:38.363Z,45618.06
2023-02-05T03:06:09.753Z,45612.06
2023-02-05T03:08:47.155Z,45616.06
2023-02-05T03:11:15.600Z,45604.06
2023-02-05T03:13:44.716Z,45614.06
2023-02-05T03:16:12.815Z,45606.06
2023-02-05T03:18:40.048Z,45616.06
2023-02-05T03:21:16.614Z,45622.06
2023-02-05T03:23:43.865Z,45626.06
2023-02-05T03:26:29.213Z,45626.06
2023-02-05T03:29:11.560Z,45622.06
2023-02-05T03:31:48.270Z,45606.06
2023-02-05T03:34:37.619Z,45638.06
2023-02-05T03:37:16.522Z,45626.06
2023-02-05T03:39:48.180Z,45626.06
2023-02-05T03:43:05.182Z,45610.06
2023-02-05T03:46:03.260Z,45618.06
2023-02-05T03:48:45.574Z,45618.06
2023-02-05T03:51:55.375Z,45602.06
2023-02-05T03:54:38.648Z,45618.06
2023-02-05T03:57:23.961Z,45628.06
2023-02-05T03:59:52.229Z,45616.06
2023-02-05T04:02:20.917Z,45618.06
2023-02-05T04:04:47.684Z,45642.03
2023-02-05T04:07:14.895Z,45610.06
2023-02-05T04:09:41.809Z,45604.06
2023-02-05T04:12:09.709Z,45594.09
2023-02-05T04:14:37.921Z,45614.06
2023-02-05T04:17:04.873Z,45594.09
2023-02-05T04:19:31.252Z,45606.06
2023-02-05T04:21:59.910Z,45602.06
2023-02-05T04:24:27.342Z,45622.06
2023-02-05T04:26:53.897Z,45598.06
2023-02-05T04:29:20.505Z,45602.06
2023-02-05T04:31:50.226Z,45614.06
2023-02-05T04:34:16.785Z,45622.06
2023-02-05T04:36:43.873Z,45628.06
2023-02-05T04:39:10.742Z,45618.06
2023-02-05T04:41:37.336Z,45614.06
2023-02-05T04:44:03.987Z,45614.06
2023-02-05T04:46:30.654Z,45594.09
2023-02-05T04:48:57.043Z,45622.06
2023-02-05T04:51:23.756Z,45628.06
2023-02-05T04:53:50.231Z,45616.06
2023-02-05T04:56:17.860Z,45624.06
2023-02-05T04:58:45.159Z,45618.06
2023-02-05T05:01:18.096Z,45596.06
2023-02-05T05:03:45.028Z,45618.06
2023-02-05T05:06:12.381Z,45642.03
2023-02-05T05:08:39.060Z,45618.06
2023-02-05T05:11:07.806Z,45636.06
2023-02-05T05:13:35.359Z,45622.06
2023-02-05T05:16:02.835Z,45610.06
2023-02-05T05:18:29.374Z,45598.06
2023-02-05T05:20:56.035Z,45612.06
2023-02-05T05:23:22.546Z,45602.06
2023-02-05T05:25:49.046Z,45618.06
2023-02-05T05:28:16.585Z,45638.06
2023-02-05T05:30:44.668Z,45612.06
2023-02-05T05:33:11.518Z,45618.06
2023-02-05T05:35:38.546Z,45634.06
2023-02-05T05:38:05.490Z,45640.03
2023-02-05T05:40:51.950Z,45614.06
2023-02-05T05:43:39.314Z,45594.09
2023-02-05T05:46:06.854Z,45636.06
2023-02-05T05:48:33.428Z,45622.06
2023-02-05T05:50:59.997Z,45626.06
2023-02-05T05:53:26.446Z,45628.06
2023-02-05T05:55:52.894Z,45628.06
2023-02-05T05:58:19.295Z,45626.06
2023-02-05T06:00:45.945Z,45612.06
2023-02-05T06:03:13.264Z,45602.06
2023-02-05T06:05:39.676Z,45620.06
2023-02-05T06:08:06.174Z,45634.06
2023-02-05T06:10:33.314Z,45602.06
2023-02-05T06:13:00.124Z,45626.06
2023-02-05T06:15:26.824Z,45614.06
2023-02-05T06:17:53.418Z,45614.06
2023-02-05T06:20:20.637Z,45634.06
2023-02-05T06:22:47.004Z,45614.06
2023-02-05T06:25:13.505Z,45622.06
2023-02-05T06:27:39.872Z,45626.06
2023-02-05T06:30:06.688Z,45616.06
2023-02-05T06:32:33.279Z,45622.06
2023-02-05T06:34:59.654Z,45610.06
2023-02-05T06:37:45.446Z,45622.06
2023-02-05T06:40:15.383Z,45626.06
2023-02-05T06:42:41.761Z,45610.06
2023-02-05T06:45:09.965Z,45626.06
2023-02-05T06:47:37.779Z,45624.06
2023-02-05T06:50:06.255Z,45638.06
2023-02-05T06:52:32.785Z,45630.06
2023-02-05T06:54:59.198Z,45606.06
2023-02-05T06:57:25.817Z,45622.06
2023-02-05T06:59:52.285Z,45608.06
2023-02-05T07:02:18.744Z,45602.06
2023-02-05T07:04:47.026Z,45622.06
2023-02-05T07:07:13.628Z,45622.06
2023-02-05T07:09:40.032Z,45618.06
2023-02-05T07:12:06.845Z,45628.06
2023-02-05T07:14:40.420Z,45626.06
2023-02-05T07:17:07.513Z,45626.06
2023-02-05T07:19:34.868Z,45636.06
2023-02-05T07:22:01.285Z,45626.06
2023-02-05T07:24:27.740Z,45634.06
2023-02-05T07:26:54.178Z,45638.06
2023-02-05T07:29:20.659Z,45630.06
2023-02-05T07:31:49.429Z,45614.06
2023-02-05T07:34:15.858Z,45646.03
2023-02-05T07:36:42.219Z,45610.06
2023-02-05T07:39:08.618Z,45650.03
2023-02-05T07:41:35.082Z,45650.03
2023-02-05T07:44:01.481Z,45612.06
2023-02-05T07:46:29.386Z,45614.06
2023-02-05T07:48:55.860Z,45630.06
2023-02-05T07:51:24.709Z,45630.06
2023-02-05T07:53:52.234Z,45626.06
2023-02-05T07:56:22.604Z,45608.06
2023-02-05T07:58:49.155Z,45638.06
2023-02-05T08:01:16.034Z,45628.06
2023-02-05T08:03:42.768Z,45638.06
2023-02-05T08:06:11.423Z,45610.06
2023-02-05T08:08:37.821Z,45616.06
2023-02-05T08:11:06.330Z,45634.06
2023-02-05T08:13:34.140Z,45630.06
2023-02-05T08:16:04.983Z,45650.03
2023-02-05T08:18:31.373Z,45638.06
2023-02-05T08:20:57.743Z,45638.06
2023-02-05T08:23:24.445Z,45648.03
2023-02-05T08:25:55.229Z,45630.06
2023-02-05T08:28:22.270Z,45630.06
2023-02-05T08:30:49.114Z,45624.06
2023-02-05T08:33:15.510Z,45644.03
2023-02-05T08:35:42.004Z,45630.06
2023-02-05T08:38:08.390Z,45626.06
2023-02-05T08:40:35.908Z,45652.03
2023-02-05T08:43:02.659Z,45632.06
2023-02-05T08:45:29.656Z,45650.03
2023-02-05T08:47:56.747Z,45630.06
2023-02-05T08:50:23.324Z,45654.03
2023-02-05T08:52:50.069Z,45646.03
2023-02-05T08:55:20.353Z,45658.03
2023-02-05T08:57:46.769Z,45658.03
2023-02-05T09:00:15.048Z,45638.06
2023-02-05T09:02:43.077Z,45662.03
2023-02-05T09:05:10.047Z,45634.06
2023-02-05T09:07:41.016Z,45626.06
2023-02-05T09:10:09.800Z,45642.03
2023-02-05T09:12:36.825Z,45644.03
2023-02-05T09:15:04.118Z,45646.03
2023-02-05T09:17:30.841Z,45612.06
2023-02-05T09:19:57.940Z,45638.06
2023-02-05T09:22:24.391Z,45654.03
2023-02-05T09:24:50.771Z,45646.03
2023-02-05T09:27:17.179Z,45634.06
2023-02-05T09:29:43.601Z,45626.06
2023-02-05T09:32:09.989Z,45638.06
2023-02-05T09:34:36.394Z,45634.06
2023-02-05T09:37:02.798Z,45650.03
2023-02-05T09:40:17.181Z,45642.03
2023-02-05T09:42:36.662Z,45638.06
2023-02-05T09:45:13.607Z,45650.03
2023-02-05T09:47:57.121Z,45628.06
2023-02-05T09:50:29.755Z,45670.03
2023-02-05T09:53:12.197Z,45640.03
2023-02-05T09:55:44.747Z,45634.06
2023-02-05T09:58:23.770Z,45638.06
2023-02-05T10:00:58.429Z,45626.06
2023-02-05T10:03:32.441Z,45632.06
2023-02-05T10:06:13.688Z,45606.06
2023-02-05T10:08:49.162Z,45638.06
2023-02-05T10:11:38.218Z,45630.06
2023-02-05T10:14:30.685Z,45618.06
2023-02-05T10:17:15.320Z,45626.06
2023-02-05T10:19:55.880Z,45638.06
2023-02-05T10:22:31.882Z,45626.06
2023-02-05T10:25:04.540Z,45634.06
2023-02-05T10:27:43.638Z,45626.06
2023-02-05T10:30:24.576Z,45636.06
2023-02-05T10:32:59.900Z,45622.06
2023-02-05T10:35:39.062Z,45614.06
2023-02-05T10:38:16.814Z,45634.06
2023-02-05T10:40:46.432Z,45618.06
2023-02-05T10:43:36.007Z,45612.06
2023-02-05T10:46:03.369Z,45634.06
2023-02-05T10:49:01.199Z,45616.06
2023-02-05T10:51:40.155Z,45614.06
2023-02-05T10:54:18.991Z,45632.06
2023-02-05T10:56:45.734Z,45630.06
2023-02-05T10:59:26.400Z,45638.06
2023-02-05T11:01:55.962Z,45634.06
2023-02-05T11:04:33.640Z,45618.06
2023-02-05T11:07:01.535Z,45632.06
2023-02-05T11:09:30.897Z,45624.06
2023-02-05T11:12:06.435Z,45628.06
2023-02-05T11:14:36.869Z,45614.06
2023-02-05T11:17:24.874Z,45634.06
2023-02-05T11:20:05.958Z,45616.06
2023-02-05T11:22:39.383Z,45612.06
2023-02-05T11:25:17.958Z,45622.06
2023-02-05T11:27:57.527Z,45628.06
2023-02-05T11:30:56.006Z,45618.06
2023-02-05T11:33:21.872Z,45626.06
2023-02-05T11:36:02.650Z,45624.06
2023-02-05T11:38:33.918Z,45620.06
2023-02-05T11:41:04.095Z,45638.06
2023-02-05T11:43:34.238Z,45612.06
2023-02-05T11:46:03.615Z,45618.06
2023-02-05T11:48:44.624Z,45630.06
2023-02-05T11:51:15.547Z,45628.06
2023-02-05T11:53:54.737Z,45610.06
2023-02-05T11:56:25.386Z,45650.03
2023-02-05T11:59:04.028Z,45622.06
2023-02-05T12:01:33.746Z,45616.06
2023-02-05T12:04:06.383Z,45626.06
2023-02-05T12:06:41.502Z,45634.06
2023-02-05T12:09:12.642Z,45634.06
2023-02-05T12:12:03.981Z,45622.06
2023-02-05T12:14:39.784Z,45622.06
2023-02-05T12:17:28.140Z,45614.06
2023-02-05T12:20:22.681Z,45620.06
2023-02-05T12:23:04.525Z,45626.06
2023-02-05T12:25:54.237Z,45634.06
2023-02-05T12:28:33.256Z,45622.06
2023-02-05T12:31:08.589Z,45614.06
2023-02-05T12:33:44.274Z,45624.06
2023-02-05T12:36:22.967Z,45610.06
2023-02-05T12:39:14.487Z,45604.06
2023-02-05T12:42:18.537Z,45614.06
2023-02-05T12:45:22.769Z,45640.03
2023-02-05T12:48:08.317Z,45614.06
2023-02-05T12:50:40.530Z,45608.06
2023-02-05T12:53:39.150Z,45642.03
2023-02-05T12:56:39.870Z,45602.06
2023-02-05T12:59:14.836Z,45622.06
2023-02-05T13:01:48.780Z,45598.06
2023-02-05T13:04:28.575Z,45620.06
2023-02-05T13:07:05.642Z,45614.06
2023-02-05T13:09:46.458Z,45614.06
2023-02-05T13:12:17.648Z,45614.06
2023-02-05T13:14:47.894Z,45634.06
2023-02-05T13:17:29.296Z,45600.06
2023-02-05T13:20:01.015Z,45610.06
2023-02-05T13:22:54.811Z,45642.03
2023-02-05T13:25:38.561Z,45614.06
2023-02-05T13:28:39.929Z,45606.06
2023-02-05T13:31:16.612Z,45602.06
2023-02-05T13:33:43.985Z,45614.06
2023-02-05T13:36:27.143Z,45596.06
2023-02-05T13:39:13.786Z,45616.06
2023-02-05T13:41:43.219Z,45602.06
2023-02-05T13:44:28.442Z,45592.09
2023-02-05T13:47:35.430Z,45578.09
2023-02-05T13:50:16.878Z,45594.09
2023-02-05T13:53:06.126Z,45592.09
2023-02-05T13:56:03.572Z,45570.09
2023-02-05T13:58:52.654Z,45596.06
2023-02-05T14:01:25.280Z,45582.09
2023-02-05T14:04:02.428Z,45586.09
2023-02-05T14:06:35.804Z,45594.09
2023-02-05T14:09:09.948Z,45578.09
2023-02-05T14:11:49.461Z,45590.09
2023-02-05T14:14:39.080Z,45590.09
2023-02-05T14:17:43.792Z,45592.09
2023-02-05T14:20:25.334Z,45606.06
2023-02-05T14:22:57.717Z,45582.09
2023-02-05T14:25:36.926Z,45610.06
2023-02-05T14:28:28.023Z,45588.09
2023-02-05T14:31:03.589Z,45598.06
2023-02-05T14:33:39.345Z,45598.06
2023-02-05T14:36:22.518Z,45602.06
2023-02-05T14:38:59.206Z,45602.06
2023-02-05T14:41:33.669Z,45614.06
2023-02-05T14:44:04.097Z,45618.06
2023-02-05T14:46:36.400Z,45596.06
2023-02-05T14:49:06.426Z,45584.09
2023-02-05T14:51:41.273Z,45590.09
2023-02-05T14:54:17.945Z,45594.09
2023-02-05T14:56:49.861Z,45596.06
2023-02-05T14:59:29.183Z,45594.09
2023-02-05T15:01:57.245Z,45602.06
2023-02-05T15:04:57.876Z,45598.06
2023-02-05T15:07:27.519Z,45610.06
2023-02-05T15:10:02.344Z,45602.06
2023-02-05T15:12:51.302Z,45614.06
2023-02-05T15:15:31.413Z,45614.06
2023-02-05T15:18:04.828Z,45598.06
2023-02-05T15:20:33.776Z,45590.09
2023-02-05T15:23:04.810Z,45614.06
2023-02-05T15:25:36.640Z,45594.09
2023-02-05T15:28:23.672Z,45606.06
2023-02-05T15:30:57.615Z,45600.06
2023-02-05T15:33:39.287Z,45618.06
2023-02-05T15:36:13.239Z,45602.06
2023-02-05T15:38:48.105Z,45610.06
2023-02-05T15:41:15.854Z,45608.06
2023-02-05T15:43:58.775Z,45594.09
2023-02-05T15:46:25.877Z,45596.06
2023-02-05T15:48:52.908Z,45598.06
2023-02-05T15:51:39.618Z,45594.09
2023-02-05T15:54:07.043Z,45606.06
2023-02-05T15:56:37.520Z,45598.06
2023-02-05T15:59:11.501Z,45614.06
2023-02-05T16:01:44.872Z,45616.06
2023-02-05T16:04:18.755Z,45616.06
2023-02-05T16:06:45.394Z,45622.06
2023-02-05T16:09:20.822Z,45598.06
2023-02-05T16:11:48.209Z,45600.06
2023-02-05T16:14:17.317Z,45606.06
2023-02-05T16:17:15.555Z,45618.06
2023-02-05T16:19:50.008Z,45598.06
2023-02-05T16:22:40.531Z,45606.06
2023-02-05T16:25:29.069Z,45610.06
2023-02-05T16:27:57.450Z,45622.06
2023-02-05T16:30:43.563Z,45594.09
2023-02-05T16:33:45.469Z,45612.06
2023-02-05T16:36:29.331Z,45618.06
2023-02-05T16:38:59.192Z,45606.06
2023-02-05T16:41:26.647Z,45626.06
2023-02-05T16:43:55.627Z,45614.06
2023-02-05T16:46:25.273Z,45594.09
2023-02-05T16:48:57.725Z,45638.06
2023-02-05T16:51:31.512Z,45626.06
2023-02-05T16:54:00.605Z,45616.06
2023-02-05T16:56:34.373Z,45618.06
2023-02-05T16:59:02.982Z,45626.06
2023-02-05T17:01:38.782Z,45614.06
2023-02-05T17:04:05.364Z,45632.06
2023-02-05T17:06:37.612Z,45606.06
2023-02-05T17:09:05.461Z,45624.06
2023-02-05T17:11:38.019Z,45614.06
2023-02-05T17:14:29.195Z,45618.06
2023-02-05T17:17:00.473Z,45626.06
2023-02-05T17:19:32.381Z,45622.06
2023-02-05T17:22:14.131Z,45636.06
2023-02-05T17:24:46.214Z,45606.06
2023-02-05T17:27:18.677Z,45642.03
2023-02-05T17:29:46.086Z,45628.06
2023-02-05T17:32:18.516Z,45624.06
2023-02-05T17:34:45.818Z,45630.06
2023-02-05T17:37:12.729Z,45616.06
2023-02-05T17:39:40.822Z,45618.06
2023-02-05T17:42:18.207Z,45626.06
2023-02-05T17:44:44.585Z,45618.06
2023-02-05T17:47:11.030Z,45624.06
2023-02-05T17:49:37.377Z,45632.06
2023-02-05T17:52:03.881Z,45622.06
2023-02-05T17:54:30.900Z,45618.06
2023-02-05T17:57:13.180Z,45622.06
2023-02-05T17:59:40.259Z,45626.06
2023-02-05T18:02:07.625Z,45622.06
2023-02-05T18:04:34.214Z,45618.06
2023-02-05T18:07:00.702Z,45614.06
2023-02-05T18:09:27.535Z,45616.06
2023-02-05T18:11:53.970Z,45636.06
2023-02-05T18:14:21.657Z,45626.06
2023-02-05T18:16:48.060Z,45630.06
2023-02-05T18:19:14.505Z,45634.06
2023-02-05T18:21:40.938Z,45638.06
2023-02-05T18:24:07.419Z,45624.06
2023-02-05T18:26:33.875Z,45636.06
2023-02-05T18:29:00.262Z,45618.06
2023-02-05T18:31:26.696Z,45614.06
2023-02-05T18:33:54.045Z,45630.06
2023-02-05T18:36:21.005Z,45614.06
2023-02-05T18:38:47.442Z,45616.06
2023-02-05T18:41:16.139Z,45654.03
2023-02-05T18:43:43.533Z,45634.06
2023-02-05T18:46:18.309Z,45618.06
2023-02-05T18:48:49.186Z,45644.03
2023-02-05T18:51:18.694Z,45634.06
2023-02-05T18:53:47.318Z,45634.06
2023-02-05T18:56:13.969Z,45616.06
2023-02-05T18:58:40.830Z,45628.06
2023-02-05T19:01:14.996Z,45642.03
2023-02-05T19:03:42.737Z,45630.06
2023-02-05T19:06:11.108Z,45634.06
2023-02-05T19:08:38.184Z,45642.03
2023-02-05T19:11:20.681Z,45652.03
2023-02-05T19:13:48.073Z,45650.03
2023-02-05T19:16:16.603Z,45634.06
2023-02-05T19:18:45.014Z,45616.06
2023-02-05T19:21:15.062Z,45616.06
2023-02-05T19:23:42.025Z,45638.06
2023-02-05T19:26:14.006Z,45642.03
2023-02-05T19:28:43.779Z,45628.06
2023-02-05T19:31:13.958Z,45670.03
2023-02-05T19:33:41.628Z,45636.06
2023-02-05T19:36:10.175Z,45634.06
2023-02-05T19:38:38.499Z,45642.03
2023-02-05T19:41:09.052Z,45644.03
2023-02-05T19:43:35.874Z,45648.03
2023-02-05T19:46:07.234Z,45656.03
2023-02-05T19:48:34.474Z,45642.03
2023-02-05T19:51:09.935Z,45650.03
2023-02-05T19:53:38.979Z,45658.03
2023-02-05T19:56:11.772Z,45632.06
2023-02-05T19:58:40.432Z,45638.06
2023-02-05T20:01:23.634Z,45630.06
2023-02-05T20:03:52.180Z,45630.06
2023-02-05T20:06:22.703Z,45666.03
2023-02-05T20:08:49.241Z,45652.03
2023-02-05T20:11:16.509Z,45644.03
2023-02-05T20:13:42.991Z,45646.03
2023-02-05T20:16:13.213Z,45662.03
2023-02-05T20:18:41.341Z,45636.06
2023-02-05T20:21:12.416Z,45642.03
2023-02-05T20:23:40.032Z,45634.06
2023-02-05T20:26:07.742Z,45652.03
2023-02-05T20:28:59.390Z,45658.03
2023-02-05T20:31:35.009Z,45684.00
2023-02-05T20:34:03.048Z,45672.03
2023-02-05T20:36:31.589Z,45654.03
2023-02-05T20:38:59.784Z,45672.03
2023-02-05T20:41:26.229Z,45676.03
2023-02-05T20:43:53.644Z,45676.03
2023-02-05T20:46:20.674Z,45680.03
2023-02-05T20:48:48.338Z,45668.03
2023-02-05T20:51:18.913Z,45670.03
2023-02-05T20:53:46.229Z,45668.03
2023-02-05T20:56:14.794Z,45650.03
2023-02-05T20:58:41.611Z,45666.03
2023-02-05T21:01:09.713Z,45658.03
2023-02-05T21:03:37.122Z,45686.00
2023-02-05T21:06:04.344Z,45686.00
2023-02-05T21:08:30.930Z,45672.03
2023-02-05T21:10:57.580Z,45686.00
2023-02-05T21:13:23.943Z,45684.00
2023-02-05T21:15:58.973Z,45690.00
2023-02-05T21:18:26.695Z,45698.00
2023-02-05T21:20:54.122Z,45670.03
2023-02-05T21:23:21.222Z,45716.00
2023-02-05T21:25:48.072Z,45702.00
2023-02-05T21:28:14.783Z,45682.00
2023-02-05T21:30:42.948Z,45724.00
2023-02-05T21:33:09.363Z,45702.00
2023-02-05T21:35:39.037Z,45712.00
2023-02-05T21:38:05.511Z,45688.00
2023-02-05T21:40:33.962Z,45704.00
2023-02-05T21:43:00.576Z,45686.00
2023-02-05T21:45:26.991Z,45692.00
2023-02-05T21:47:53.391Z,45702.00
2023-02-05T21:50:19.770Z,45690.00
2023-02-05T21:52:46.216Z,45690.00
2023-02-05T21:55:12.602Z,45698.00
2023-02-05T21:57:38.949Z,45680.03
2023-02-05T22:00:05.645Z,45690.00
2023-02-05T22:02:38.487Z,45682.00
2023-02-05T22:05:05.136Z,45688.00
2023-02-05T22:07:31.758Z,45702.00
2023-02-05T22:09:58.166Z,45706.00
2023-02-05T22:12:24.511Z,45694.00
2023-02-05T22:14:50.979Z,45706.00
2023-02-05T22:17:17.352Z,45710.00
2023-02-05T22:19:43.739Z,45692.00
2023-02-05T22:22:10.113Z,45698.00
2023-02-05T22:24:36.495Z,45706.00
2023-02-05T22:27:03.124Z,45724.00
2023-02-05T22:29:29.824Z,45718.00
2023-02-05T22:31:56.262Z,45696.00
2023-02-05T22:34:22.919Z,45706.00
2023-02-05T22:36:49.557Z,45720.00
2023-02-05T22:39:15.963Z,45708.00
2023-02-05T22:41:44.418Z,45725.97
2023-02-05T22:44:11.699Z,45725.97
2023-02-05T22:46:41.578Z,45733.97
2023-02-05T22:49:08.488Z,45722.00
2023-02-05T22:51:37.722Z,45716.00
2023-02-05T22:54:05.138Z,45718.00
2023-02-05T22:56:32.506Z,45733.97
2023-02-05T22:59:01.348Z,45714.00
2023-02-05T23:01:32.597Z,45706.00
2023-02-05T23:04:00.716Z,45706.00
2023-02-05T23:06:30.677Z,45722.00
2023-02-05T23:08:59.698Z,45725.97
2023-02-05T23:11:28.025Z,45727.97
2023-02-05T23:13:55.553Z,45739.97
2023-02-05T23:16:30.992Z,45725.97
2023-02-05T23:19:03.931Z,45720.00
2023-02-05T23:21:32.993Z,45724.00
2023-02-05T23:23:59.543Z,45716.00
2023-02-05T23:26:28.729Z,45729.97
2023-02-05T23:28:55.874Z,45737.97
2023-02-05T23:31:24.314Z,45720.00
2023-02-05T23:33:51.980Z,45759.97
2023-02-05T23:36:18.517Z,45725.97
2023-02-05T23:38:45.237Z,45702.00
2023-02-05T23:41:12.199Z,45729.97
2023-02-05T23:43:39.090Z,45729.97
2023-02-05T23:46:07.399Z,45729.97
2023-02-05T23:48:34.174Z,45731.97
2023-02-05T23:51:00.861Z,45725.97
2023-02-05T23:53:27.564Z,45718.00
2023-02-05T23:55:54.144Z,45722.00
2023-02-05T23:58:25.607Z,45724.00
